createdAt,value
2022-08-19T00:01:22.008Z,16.34
2022-08-19T00:06:30.746Z,16.33
2022-08-19T00:11:39.853Z,16.26
2022-08-19T00:16:48.151Z,16.24
2022-08-19T00:21:56.250Z,16.22
2022-08-19T00:27:03.410Z,16.17
2022-08-19T00:32:11.925Z,16.14
2022-08-19T00:37:20.007Z,16.2
2022-08-19T00:42:27.382Z,16.18
2022-08-19T00:47:35.770Z,16.11
2022-08-19T00:52:43.696Z,16.11
2022-08-19T00:57:51.722Z,16.14
2022-08-19T01:03:00.206Z,16.17
2022-08-19T01:08:07.625Z,16.2
2022-08-19T01:13:15.096Z,16.18
2022-08-19T01:18:22.886Z,16.17
2022-08-19T01:23:29.500Z,16.17
2022-08-19T01:28:37.083Z,16.08
2022-08-19T01:33:50.868Z,15.97
2022-08-19T01:38:58.218Z,15.9
2022-08-19T01:44:06.267Z,15.89
2022-08-19T01:49:14.481Z,15.86
2022-08-19T01:54:23.438Z,15.88
2022-08-19T01:59:32.749Z,15.84
2022-08-19T02:04:41.041Z,15.8
2022-08-19T02:09:49.151Z,15.93
2022-08-19T02:14:56.871Z,16.06
2022-08-19T02:20:04.572Z,16.06
2022-08-19T02:25:12.371Z,16.03
2022-08-19T02:30:19.328Z,16.02
2022-08-19T02:35:27.448Z,15.97
2022-08-19T02:40:34.597Z,15.92
2022-08-19T02:45:42.591Z,15.9
2022-08-19T02:55:47.634Z,15.89
2022-08-19T03:00:53.682Z,15.83
2022-08-19T03:06:01.828Z,15.82
2022-08-19T03:11:09.017Z,15.82
2022-08-19T03:16:17.375Z,15.78
2022-08-19T03:21:24.898Z,15.78
2022-08-19T03:26:31.919Z,15.76
2022-08-19T03:31:39.767Z,15.79
2022-08-19T03:36:46.954Z,15.76
2022-08-19T03:41:54.137Z,15.7
2022-08-19T03:47:02.823Z,15.58
2022-08-19T03:52:09.995Z,15.48
2022-08-19T03:57:17.650Z,15.71
2022-08-19T04:02:24.411Z,15.89
2022-08-19T04:07:32.977Z,16.22
2022-08-19T04:12:41.584Z,16.38
2022-08-19T04:17:49.947Z,16.52
2022-08-19T04:22:57.529Z,16.64
2022-08-19T04:28:05.170Z,16.71
2022-08-19T04:33:13.196Z,16.78
2022-08-19T04:38:21.016Z,16.84
2022-08-19T04:43:28.484Z,16.96
2022-08-19T04:48:36.063Z,17.14
2022-08-19T04:53:44.706Z,17.28
2022-08-19T04:58:52.565Z,17.52
2022-08-19T05:04:00.250Z,17.58
2022-08-19T05:09:09.118Z,17.7
2022-08-19T05:14:16.542Z,17.6
2022-08-19T05:19:23.736Z,17.61
2022-08-19T05:24:32.178Z,17.74
2022-08-19T05:29:41.605Z,18.01
2022-08-19T05:34:50.963Z,18.26
2022-08-19T05:40:00.276Z,18.11
2022-08-19T05:45:07.423Z,17.93
2022-08-19T05:50:15.290Z,17.86
2022-08-19T05:55:23.312Z,17.96
2022-08-19T06:00:29.726Z,18.15
2022-08-19T06:05:36.892Z,18.43
2022-08-19T06:10:45.275Z,18.86
2022-08-19T06:15:53.696Z,19.3
2022-08-19T06:21:03.651Z,19.8
2022-08-19T06:26:10.819Z,19.91
2022-08-19T06:31:18.240Z,20.15
2022-08-19T06:36:25.951Z,20.36
2022-08-19T06:41:34.713Z,20.71
2022-08-19T06:46:42.132Z,21.03
2022-08-19T06:51:50.438Z,21.35
2022-08-19T06:56:58.160Z,21.69
2022-08-19T07:02:06.442Z,22.52
2022-08-19T07:07:15.928Z,24.29
2022-08-19T07:12:24.789Z,25.16
2022-08-19T07:17:32.525Z,25.3
2022-08-19T07:22:40.812Z,25.64
2022-08-19T07:27:48.907Z,26.72
2022-08-19T07:32:55.921Z,26.96
2022-08-19T07:38:03.781Z,28.72
2022-08-19T07:43:12.093Z,30.12
2022-08-19T07:48:20.211Z,31.6
2022-08-19T07:53:27.900Z,31.62
2022-08-19T07:58:36.891Z,31.38
2022-08-19T08:03:44.238Z,31.86
2022-08-19T08:08:50.814Z,31.92
2022-08-19T08:13:59.193Z,32.58
2022-08-19T08:19:07.370Z,32.24
2022-08-19T08:24:16.077Z,31.53
2022-08-19T08:29:23.417Z,32.44
2022-08-19T08:34:31.449Z,33.07
2022-08-19T08:39:39.670Z,33.71
2022-08-19T08:44:47.451Z,34.54
2022-08-19T08:49:54.784Z,35.3
2022-08-19T08:55:01.339Z,35.32
2022-08-19T09:00:08.543Z,32.59
2022-08-19T09:05:15.090Z,31.94
2022-08-19T09:10:23.583Z,35.24
2022-08-19T09:15:30.782Z,37.12
2022-08-19T09:20:38.604Z,34.74
2022-08-19T09:25:47.609Z,33.17
2022-08-19T09:30:55.187Z,31.18
2022-08-19T09:36:03.293Z,30.04
2022-08-19T09:41:10.653Z,28.68
2022-08-19T09:46:17.212Z,29.12
2022-08-19T09:51:24.564Z,28.48
2022-08-19T09:56:32.464Z,27.2
2022-08-19T10:02:21.714Z,26.9
2022-08-19T10:07:30.044Z,26.86
2022-08-19T10:12:37.660Z,28.43
2022-08-19T10:17:44.950Z,29.01
2022-08-19T10:22:54.253Z,29.52
2022-08-19T10:28:01.010Z,28.9
2022-08-19T10:33:09.019Z,29.33
2022-08-19T10:38:21.967Z,31.52
2022-08-19T10:43:31.528Z,30.96
2022-08-19T10:48:39.776Z,29.52
2022-08-19T10:53:47.133Z,29.84
2022-08-19T10:58:54.566Z,32.97
2022-08-19T11:04:01.694Z,37.56
2022-08-19T11:09:10.381Z,39.16
2022-08-19T11:14:18.091Z,42.39
2022-08-19T11:19:26.301Z,44.36
2022-08-19T11:24:33.866Z,44.94
2022-08-19T11:29:41.686Z,43.16
2022-08-19T11:34:48.343Z,43.38
2022-08-19T11:39:56.138Z,44.7
2022-08-19T11:45:03.450Z,39.22
2022-08-19T11:50:10.407Z,35.94
2022-08-19T11:55:18.217Z,33.24
2022-08-19T12:00:25.958Z,31.62
2022-08-19T12:05:34.998Z,31.04
2022-08-19T12:10:42.796Z,30.43
2022-08-19T12:15:49.985Z,29.26
2022-08-19T12:20:57.184Z,28.69
2022-08-19T12:26:05.017Z,28.4
2022-08-19T12:31:12.377Z,28.4
2022-08-19T12:36:19.996Z,28.44
2022-08-19T12:41:29.130Z,28.97
2022-08-19T12:46:35.768Z,30.21
2022-08-19T12:51:43.617Z,31.33
2022-08-19T12:56:51.825Z,31.5
2022-08-19T13:01:59.853Z,30.47
2022-08-19T13:07:07.741Z,30.33
2022-08-19T13:12:14.977Z,29.96
2022-08-19T13:17:22.652Z,29.21
2022-08-19T13:22:33.345Z,28.86
2022-08-19T13:27:40.596Z,28.3
2022-08-19T13:32:47.588Z,28.01
2022-08-19T13:37:55.796Z,27.54
2022-08-19T13:43:02.861Z,27.39
2022-08-19T13:48:09.827Z,27.34
2022-08-19T13:53:17.659Z,27.52
2022-08-19T13:58:24.856Z,27.9
2022-08-19T14:03:33.732Z,28.6
2022-08-19T14:08:41.466Z,29.62
2022-08-19T14:13:50.114Z,30.64
2022-08-19T14:19:00.567Z,30.56
2022-08-19T14:24:10.744Z,30.92
2022-08-19T14:29:18.618Z,31.1
2022-08-19T14:34:26.535Z,31.58
2022-08-19T14:39:33.978Z,31.89
2022-08-19T14:44:41.811Z,32.58
2022-08-19T14:49:50.087Z,32.9
2022-08-19T14:54:56.885Z,33.16
2022-08-19T15:00:04.696Z,33.75
2022-08-19T15:05:17.014Z,33.74
2022-08-19T15:10:22.969Z,34.33
2022-08-19T15:15:30.517Z,35.28
2022-08-19T15:20:37.370Z,34.5
2022-08-19T15:25:44.242Z,35.24
2022-08-19T15:30:51.714Z,34.56
2022-08-19T15:35:58.277Z,35.43
2022-08-19T15:41:05.490Z,36.22
2022-08-19T15:46:13.288Z,35.72
2022-08-19T15:51:19.894Z,35.44
2022-08-19T15:56:27.130Z,33.58
2022-08-19T16:01:34.728Z,32.29
2022-08-19T16:06:41.660Z,32.01
2022-08-19T16:11:49.818Z,31.56
2022-08-19T16:16:57.201Z,30.53
2022-08-19T16:22:05.667Z,30.1
2022-08-19T16:27:12.879Z,30.34
2022-08-19T16:32:21.185Z,30.04
2022-08-19T16:37:27.898Z,29.72
2022-08-19T16:42:35.824Z,29.17
2022-08-19T16:47:43.014Z,28.6
2022-08-19T16:52:51.122Z,28.06
2022-08-19T16:57:59.183Z,27.54
2022-08-19T17:03:08.094Z,26.97
2022-08-19T17:08:15.614Z,26.46
2022-08-19T17:13:23.253Z,26.19
2022-08-19T17:18:30.615Z,26.02
2022-08-19T17:23:38.650Z,25.8
2022-08-19T17:28:45.049Z,25.42
2022-08-19T17:33:52.217Z,24.9
2022-08-19T17:38:58.776Z,24.47
2022-08-19T17:44:07.829Z,24.15
2022-08-19T17:49:15.669Z,23.9
2022-08-19T17:54:23.317Z,23.52
2022-08-19T17:59:30.188Z,23.17
2022-08-19T18:04:38.326Z,22.93
2022-08-19T18:09:46.443Z,22.71
2022-08-19T18:14:54.294Z,22.54
2022-08-19T18:20:02.492Z,22.42
2022-08-19T18:25:09.375Z,22.15
2022-08-19T18:30:17.441Z,21.97
2022-08-19T18:35:25.384Z,21.7
2022-08-19T18:40:32.477Z,21.54
2022-08-19T18:45:40.461Z,21.64
2022-08-19T18:50:47.293Z,21.44
2022-08-19T18:55:55.648Z,21.04
2022-08-19T19:01:03.323Z,20.99
2022-08-19T19:06:11.888Z,21.07
2022-08-19T19:11:19.764Z,21.1
2022-08-19T19:16:26.879Z,21.08
2022-08-19T19:21:35.147Z,21.06
2022-08-19T19:26:43.038Z,21.06
2022-08-19T19:31:49.713Z,20.96
2022-08-19T19:36:57.211Z,20.79
2022-08-19T19:42:04.378Z,20.64
2022-08-19T19:47:12.842Z,20.7
2022-08-19T19:52:20.551Z,20.85
2022-08-19T19:57:28.681Z,20.9
2022-08-19T20:02:36.076Z,20.94
2022-08-19T20:07:44.726Z,20.93
2022-08-19T20:12:52.051Z,20.88
2022-08-19T20:18:00.411Z,20.79
2022-08-19T20:23:08.639Z,20.75
2022-08-19T20:28:16.425Z,20.66
2022-08-19T20:33:23.462Z,20.6
2022-08-19T20:38:30.669Z,20.52
2022-08-19T20:43:37.864Z,20.44
2022-08-19T20:48:45.058Z,20.34
2022-08-19T20:53:52.257Z,20.4
2022-08-19T20:58:59.716Z,20.44
2022-08-19T21:04:07.814Z,20.4
2022-08-19T21:09:16.197Z,20.28
2022-08-19T21:14:25.040Z,20.17
2022-08-19T21:19:33.401Z,20.08
2022-08-19T21:24:40.601Z,19.96
2022-08-19T21:29:49.083Z,19.96
2022-08-19T21:34:56.851Z,19.98
2022-08-19T21:40:04.555Z,19.96
2022-08-19T21:45:13.118Z,19.86
2022-08-19T21:50:20.463Z,19.83
2022-08-19T21:55:26.934Z,19.06
2022-08-19T22:00:34.172Z,18.61
2022-08-19T22:05:42.277Z,18.41
2022-08-19T22:10:56.446Z,18.32
2022-08-19T22:16:05.119Z,18.18
2022-08-19T22:21:13.727Z,18.08
2022-08-19T22:26:20.376Z,18.03
2022-08-19T22:31:27.726Z,17.96
2022-08-19T22:36:35.562Z,17.9
2022-08-19T22:41:43.761Z,17.88
2022-08-19T22:46:50.582Z,17.9
2022-08-19T22:51:58.300Z,18.04
2022-08-19T22:57:09.561Z,18.04
2022-08-19T22:58:43.078Z,18.04
2022-08-19T23:03:49.977Z,17.96
2022-08-19T23:08:56.572Z,17.92
2022-08-19T23:14:05.015Z,17.92
2022-08-19T23:19:13.101Z,17.93
2022-08-19T23:24:21.724Z,17.93
2022-08-19T23:29:29.769Z,17.9
2022-08-19T23:34:37.050Z,17.88
2022-08-19T23:39:43.573Z,17.86
2022-08-19T23:44:51.450Z,17.91
2022-08-19T23:50:00.406Z,18.02
2022-08-19T23:55:09.514Z,18.15
